sensor_id;sensor_type;location;lat;lon;timestamp;temperature;humidity
16408;DHT22;8313;49.894;8.084;2023-03-01T00:01:29;2.50;99.90
16408;DHT22;8313;49.894;8.084;2023-03-01T00:03:55;2.50;99.90
16408;DHT22;8313;49.894;8.084;2023-03-01T00:06:22;2.50;99.90
16408;DHT22;8313;49.894;8.084;2023-03-01T00:08:48;2.40;99.90
16408;DHT22;8313;49.894;8.084;2023-03-01T00:13:42;2.40;99.90
16408;DHT22;8313;49.894;8.084;2023-03-01T00:16:18;2.50;99.90
16408;DHT22;8313;49.894;8.084;2023-03-01T00:18:44;2.40;99.90
16408;DHT22;8313;49.894;8.084;2023-03-01T00:21:10;2.40;99.90
16408;DHT22;8313;49.894;8.084;2023-03-01T00:23:37;2.40;99.90
16408;DHT22;8313;49.894;8.084;2023-03-01T00:26:07;2.40;99.90
16408;DHT22;8313;49.894;8.084;2023-03-01T00:28:32;2.40;99.90
16408;DHT22;8313;49.894;8.084;2023-03-01T00:31:09;2.30;99.90
16408;DHT22;8313;49.894;8.084;2023-03-01T00:33:36;2.30;99.90
16408;DHT22;8313;49.894;8.084;2023-03-01T00:36:03;2.20;99.90
16408;DHT22;8313;49.894;8.084;2023-03-01T00:38:29;2.30;99.90
16408;DHT22;8313;49.894;8.084;2023-03-01T00:40:55;2.30;99.90
16408;DHT22;8313;49.894;8.084;2023-03-01T00:43:21;2.20;99.90
16408;DHT22;8313;49.894;8.084;2023-03-01T00:45:46;2.20;99.90
16408;DHT22;8313;49.894;8.084;2023-03-01T00:48:12;2.10;99.90
16408;DHT22;8313;49.894;8.084;2023-03-01T00:50:38;2.10;99.90
16408;DHT22;8313;49.894;8.084;2023-03-01T00:53:03;2.20;99.90
16408;DHT22;8313;49.894;8.084;2023-03-01T00:55:30;2.30;99.90
16408;DHT22;8313;49.894;8.084;2023-03-01T00:57:56;2.00;99.90
16408;DHT22;8313;49.894;8.084;2023-03-01T01:00:21;2.00;99.90
16408;DHT22;8313;49.894;8.084;2023-03-01T01:02:48;2.10;99.90
16408;DHT22;8313;49.894;8.084;2023-03-01T01:05:14;2.00;99.90
16408;DHT22;8313;49.894;8.084;2023-03-01T01:07:40;1.90;99.90
16408;DHT22;8313;49.894;8.084;2023-03-01T01:10:06;1.90;99.90
16408;DHT22;8313;49.894;8.084;2023-03-01T01:12:32;2.10;99.90
16408;DHT22;8313;49.894;8.084;2023-03-01T01:14:58;2.10;99.90
16408;DHT22;8313;49.894;8.084;2023-03-01T01:17:24;2.20;99.90
16408;DHT22;8313;49.894;8.084;2023-03-01T01:19:49;2.20;99.90
16408;DHT22;8313;49.894;8.084;2023-03-01T01:22:15;2.20;99.90
16408;DHT22;8313;49.894;8.084;2023-03-01T01:24:41;2.20;99.90
16408;DHT22;8313;49.894;8.084;2023-03-01T01:27:06;2.30;99.90
16408;DHT22;8313;49.894;8.084;2023-03-01T01:29:33;2.10;99.90
16408;DHT22;8313;49.894;8.084;2023-03-01T01:31:58;2.10;99.90
16408;DHT22;8313;49.894;8.084;2023-03-01T01:34:24;2.10;99.90
16408;DHT22;8313;49.894;8.084;2023-03-01T01:36:53;2.20;99.90
16408;DHT22;8313;49.894;8.084;2023-03-01T01:39:20;2.20;99.90
16408;DHT22;8313;49.894;8.084;2023-03-01T01:41:46;2.20;99.90
16408;DHT22;8313;49.894;8.084;2023-03-01T01:51:47;2.10;99.90
16408;DHT22;8313;49.894;8.084;2023-03-01T01:54:21;2.20;99.90
16408;DHT22;8313;49.894;8.084;2023-03-01T01:57:03;2.20;99.90
16408;DHT22;8313;49.894;8.084;2023-03-01T01:59:30;2.20;99.90
16408;DHT22;8313;49.894;8.084;2023-03-01T02:02:00;2.20;99.90
16408;DHT22;8313;49.894;8.084;2023-03-01T02:04:29;2.20;99.90
16408;DHT22;8313;49.894;8.084;2023-03-01T02:09:34;2.20;99.90
16408;DHT22;8313;49.894;8.084;2023-03-01T02:12:01;2.20;99.90
16408;DHT22;8313;49.894;8.084;2023-03-01T02:14:27;2.20;99.90
16408;DHT22;8313;49.894;8.084;2023-03-01T02:16:53;2.20;99.90
16408;DHT22;8313;49.894;8.084;2023-03-01T02:22:15;2.20;99.90
16408;DHT22;8313;49.894;8.084;2023-03-01T02:27:33;2.10;99.90
16408;DHT22;8313;49.894;8.084;2023-03-01T02:30:02;2.10;99.90
16408;DHT22;8313;49.894;8.084;2023-03-01T02:32:28;2.10;99.90
16408;DHT22;8313;49.894;8.084;2023-03-01T02:34:54;2.10;99.90
16408;DHT22;8313;49.894;8.084;2023-03-01T02:37:21;2.00;99.90
16408;DHT22;8313;49.894;8.084;2023-03-01T02:39:55;1.90;99.90
16408;DHT22;8313;49.894;8.084;2023-03-01T02:42:28;1.90;99.90
16408;DHT22;8313;49.894;8.084;2023-03-01T02:44:56;1.90;99.90
16408;DHT22;8313;49.894;8.084;2023-03-01T02:47:22;1.90;99.90
16408;DHT22;8313;49.894;8.084;2023-03-01T02:49:47;1.90;99.90
16408;DHT22;8313;49.894;8.084;2023-03-01T02:52:17;1.90;99.90
16408;DHT22;8313;49.894;8.084;2023-03-01T02:55:08;1.90;99.90
16408;DHT22;8313;49.894;8.084;2023-03-01T02:57:36;1.90;99.90
16408;DHT22;8313;49.894;8.084;2023-03-01T03:00:06;1.90;99.90
16408;DHT22;8313;49.894;8.084;2023-03-01T03:02:34;2.00;99.90
16408;DHT22;8313;49.894;8.084;2023-03-01T03:05:18;2.00;99.90
16408;DHT22;8313;49.894;8.084;2023-03-01T03:07:46;2.00;99.90
16408;DHT22;8313;49.894;8.084;2023-03-01T03:10:15;2.00;99.90
16408;DHT22;8313;49.894;8.084;2023-03-01T03:12:42;1.90;99.90
16408;DHT22;8313;49.894;8.084;2023-03-01T03:15:09;2.00;99.90
16408;DHT22;8313;49.894;8.084;2023-03-01T03:17:39;2.00;99.90
16408;DHT22;8313;49.894;8.084;2023-03-01T03:20:07;2.00;99.90
16408;DHT22;8313;49.894;8.084;2023-03-01T03:22:40;2.00;99.90
16408;DHT22;8313;49.894;8.084;2023-03-01T03:25:07;2.00;99.90
16408;DHT22;8313;49.894;8.084;2023-03-01T03:27:40;2.00;99.90
16408;DHT22;8313;49.894;8.084;2023-03-01T03:30:08;2.00;99.90
16408;DHT22;8313;49.894;8.084;2023-03-01T03:32:39;2.00;99.90
16408;DHT22;8313;49.894;8.084;2023-03-01T03:35:07;2.00;99.90
16408;DHT22;8313;49.894;8.084;2023-03-01T03:37:41;2.00;99.90
16408;DHT22;8313;49.894;8.084;2023-03-01T03:40:31;2.00;99.90
16408;DHT22;8313;49.894;8.084;2023-03-01T03:42:56;2.00;99.90
16408;DHT22;8313;49.894;8.084;2023-03-01T03:45:22;2.00;99.90
16408;DHT22;8313;49.894;8.084;2023-03-01T03:47:48;2.10;99.90
16408;DHT22;8313;49.894;8.084;2023-03-01T03:50:15;2.10;99.90
16408;DHT22;8313;49.894;8.084;2023-03-01T03:52:42;2.00;99.90
16408;DHT22;8313;49.894;8.084;2023-03-01T03:55:09;2.00;99.90
16408;DHT22;8313;49.894;8.084;2023-03-01T03:57:45;2.10;99.90
16408;DHT22;8313;49.894;8.084;2023-03-01T04:00:18;2.00;99.90
16408;DHT22;8313;49.894;8.084;2023-03-01T04:02:44;2.00;99.90
16408;DHT22;8313;49.894;8.084;2023-03-01T04:05:12;2.00;99.90
16408;DHT22;8313;49.894;8.084;2023-03-01T04:07:38;2.00;99.90
16408;DHT22;8313;49.894;8.084;2023-03-01T04:10:06;2.00;99.90
16408;DHT22;8313;49.894;8.084;2023-03-01T04:12:33;2.00;99.90
16408;DHT22;8313;49.894;8.084;2023-03-01T04:15:01;2.00;99.90
16408;DHT22;8313;49.894;8.084;2023-03-01T04:17:27;1.90;99.90
16408;DHT22;8313;49.894;8.084;2023-03-01T04:19:52;2.00;99.90
16408;DHT22;8313;49.894;8.084;2023-03-01T04:22:18;1.90;99.90
16408;DHT22;8313;49.894;8.084;2023-03-01T04:24:45;1.90;99.90
16408;DHT22;8313;49.894;8.084;2023-03-01T04:27:11;1.90;99.90
16408;DHT22;8313;49.894;8.084;2023-03-01T04:29:37;1.80;99.90
16408;DHT22;8313;49.894;8.084;2023-03-01T04:32:03;1.80;99.90
16408;DHT22;8313;49.894;8.084;2023-03-01T04:34:29;1.80;99.90
16408;DHT22;8313;49.894;8.084;2023-03-01T04:36:55;1.90;99.90
16408;DHT22;8313;49.894;8.084;2023-03-01T04:39:21;2.00;99.90
16408;DHT22;8313;49.894;8.084;2023-03-01T04:41:47;2.00;99.90
16408;DHT22;8313;49.894;8.084;2023-03-01T04:44:12;1.90;99.90
16408;DHT22;8313;49.894;8.084;2023-03-01T04:46:38;1.90;99.90
16408;DHT22;8313;49.894;8.084;2023-03-01T04:49:04;1.80;99.90
16408;DHT22;8313;49.894;8.084;2023-03-01T04:51:31;1.80;99.90
16408;DHT22;8313;49.894;8.084;2023-03-01T04:53:58;1.80;99.90
16408;DHT22;8313;49.894;8.084;2023-03-01T04:56:25;1.70;99.90
16408;DHT22;8313;49.894;8.084;2023-03-01T04:58:53;1.70;99.90
16408;DHT22;8313;49.894;8.084;2023-03-01T05:01:20;1.80;99.90
16408;DHT22;8313;49.894;8.084;2023-03-01T05:03:50;1.70;99.90
16408;DHT22;8313;49.894;8.084;2023-03-01T05:06:18;1.70;99.90
16408;DHT22;8313;49.894;8.084;2023-03-01T05:08:44;1.70;99.90
16408;DHT22;8313;49.894;8.084;2023-03-01T05:11:11;1.70;99.90
16408;DHT22;8313;49.894;8.084;2023-03-01T05:13:38;1.70;99.90
16408;DHT22;8313;49.894;8.084;2023-03-01T05:16:05;1.80;99.90
16408;DHT22;8313;49.894;8.084;2023-03-01T05:18:33;1.80;99.90
16408;DHT22;8313;49.894;8.084;2023-03-01T05:23:32;1.80;99.90
16408;DHT22;8313;49.894;8.084;2023-03-01T05:26:00;1.80;99.90
16408;DHT22;8313;49.894;8.084;2023-03-01T05:28:26;1.80;99.90
16408;DHT22;8313;49.894;8.084;2023-03-01T05:30:53;1.80;99.90
16408;DHT22;8313;49.894;8.084;2023-03-01T05:33:19;1.80;99.90
16408;DHT22;8313;49.894;8.084;2023-03-01T05:35:48;1.70;99.90
16408;DHT22;8313;49.894;8.084;2023-03-01T05:38:15;1.60;99.90
16408;DHT22;8313;49.894;8.084;2023-03-01T05:40:42;1.70;99.90
16408;DHT22;8313;49.894;8.084;2023-03-01T05:43:09;1.60;99.90
16408;DHT22;8313;49.894;8.084;2023-03-01T05:45:36;1.60;99.90
16408;DHT22;8313;49.894;8.084;2023-03-01T05:48:03;1.60;99.90
16408;DHT22;8313;49.894;8.084;2023-03-01T05:50:29;1.60;99.90
16408;DHT22;8313;49.894;8.084;2023-03-01T05:53:23;1.70;99.90
16408;DHT22;8313;49.894;8.084;2023-03-01T05:55:48;1.60;99.90
16408;DHT22;8313;49.894;8.084;2023-03-01T05:58:17;1.70;99.90
16408;DHT22;8313;49.894;8.084;2023-03-01T06:00:44;1.60;99.90
16408;DHT22;8313;49.894;8.084;2023-03-01T06:03:11;1.60;99.90
16408;DHT22;8313;49.894;8.084;2023-03-01T06:05:37;1.60;99.90
16408;DHT22;8313;49.894;8.084;2023-03-01T06:08:03;1.60;99.90
16408;DHT22;8313;49.894;8.084;2023-03-01T06:10:29;1.60;99.90
16408;DHT22;8313;49.894;8.084;2023-03-01T06:12:55;1.60;99.90
16408;DHT22;8313;49.894;8.084;2023-03-01T06:15:21;1.60;99.90
16408;DHT22;8313;49.894;8.084;2023-03-01T06:17:47;1.70;99.90
16408;DHT22;8313;49.894;8.084;2023-03-01T06:20:17;1.70;99.90
16408;DHT22;8313;49.894;8.084;2023-03-01T06:22:43;1.70;99.90
16408;DHT22;8313;49.894;8.084;2023-03-01T06:25:11;1.70;99.90
16408;DHT22;8313;49.894;8.084;2023-03-01T06:27:38;1.70;99.90
16408;DHT22;8313;49.894;8.084;2023-03-01T06:30:04;1.70;99.90
16408;DHT22;8313;49.894;8.084;2023-03-01T06:32:30;1.70;99.90
16408;DHT22;8313;49.894;8.084;2023-03-01T06:34:57;1.70;99.90
16408;DHT22;8313;49.894;8.084;2023-03-01T06:37:27;1.70;99.90
16408;DHT22;8313;49.894;8.084;2023-03-01T06:39:52;1.70;99.90
16408;DHT22;8313;49.894;8.084;2023-03-01T06:42:18;1.70;99.90
16408;DHT22;8313;49.894;8.084;2023-03-01T06:44:44;1.70;99.90
16408;DHT22;8313;49.894;8.084;2023-03-01T06:47:11;1.60;99.90
16408;DHT22;8313;49.894;8.084;2023-03-01T06:49:36;1.60;99.90
16408;DHT22;8313;49.894;8.084;2023-03-01T06:52:02;1.60;99.90
16408;DHT22;8313;49.894;8.084;2023-03-01T06:54:28;1.60;99.90
16408;DHT22;8313;49.894;8.084;2023-03-01T06:56:53;1.60;99.90
16408;DHT22;8313;49.894;8.084;2023-03-01T06:59:19;1.60;99.90
16408;DHT22;8313;49.894;8.084;2023-03-01T07:01:45;1.60;99.90
16408;DHT22;8313;49.894;8.084;2023-03-01T07:04:11;1.60;99.90
16408;DHT22;8313;49.894;8.084;2023-03-01T07:06:37;1.60;99.90
16408;DHT22;8313;49.894;8.084;2023-03-01T07:09:03;1.60;99.90
16408;DHT22;8313;49.894;8.084;2023-03-01T07:11:28;1.60;99.90
16408;DHT22;8313;49.894;8.084;2023-03-01T07:13:54;1.70;99.90
16408;DHT22;8313;49.894;8.084;2023-03-01T07:16:20;1.70;99.90
16408;DHT22;8313;49.894;8.084;2023-03-01T07:18:46;1.70;99.90
16408;DHT22;8313;49.894;8.084;2023-03-01T07:21:13;1.70;99.90
16408;DHT22;8313;49.894;8.084;2023-03-01T07:23:40;1.70;99.90
16408;DHT22;8313;49.894;8.084;2023-03-01T07:26:06;1.70;99.90
16408;DHT22;8313;49.894;8.084;2023-03-01T07:28:32;1.70;99.90
16408;DHT22;8313;49.894;8.084;2023-03-01T07:31:07;1.70;99.90
16408;DHT22;8313;49.894;8.084;2023-03-01T07:33:33;1.70;99.90
16408;DHT22;8313;49.894;8.084;2023-03-01T07:36:00;1.70;99.90
16408;DHT22;8313;49.894;8.084;2023-03-01T07:38:27;1.60;99.90
16408;DHT22;8313;49.894;8.084;2023-03-01T07:40:53;1.60;99.90
16408;DHT22;8313;49.894;8.084;2023-03-01T07:43:19;1.70;99.90
16408;DHT22;8313;49.894;8.084;2023-03-01T07:45:46;1.70;99.90
16408;DHT22;8313;49.894;8.084;2023-03-01T07:48:12;1.80;99.90
16408;DHT22;8313;49.894;8.084;2023-03-01T07:50:37;1.70;99.90
16408;DHT22;8313;49.894;8.084;2023-03-01T07:53:03;1.70;99.90
16408;DHT22;8313;49.894;8.084;2023-03-01T07:55:29;1.80;99.90
16408;DHT22;8313;49.894;8.084;2023-03-01T07:57:54;1.80;99.90
16408;DHT22;8313;49.894;8.084;2023-03-01T08:00:20;1.80;99.90
16408;DHT22;8313;49.894;8.084;2023-03-01T08:02:46;1.90;99.90
16408;DHT22;8313;49.894;8.084;2023-03-01T08:05:11;1.90;99.90
16408;DHT22;8313;49.894;8.084;2023-03-01T08:07:37;2.00;99.90
16408;DHT22;8313;49.894;8.084;2023-03-01T08:10:04;2.00;99.90
16408;DHT22;8313;49.894;8.084;2023-03-01T08:12:30;2.00;99.90
16408;DHT22;8313;49.894;8.084;2023-03-01T08:14:55;2.10;99.90
16408;DHT22;8313;49.894;8.084;2023-03-01T08:17:22;2.20;99.90
16408;DHT22;8313;49.894;8.084;2023-03-01T08:19:48;2.20;99.90
16408;DHT22;8313;49.894;8.084;2023-03-01T08:22:14;2.20;99.90
16408;DHT22;8313;49.894;8.084;2023-03-01T08:24:40;2.30;99.90
16408;DHT22;8313;49.894;8.084;2023-03-01T08:27:05;2.30;99.90
16408;DHT22;8313;49.894;8.084;2023-03-01T08:29:32;2.30;99.90
16408;DHT22;8313;49.894;8.084;2023-03-01T08:31:57;2.30;99.90
16408;DHT22;8313;49.894;8.084;2023-03-01T08:34:23;2.30;99.90
16408;DHT22;8313;49.894;8.084;2023-03-01T08:36:49;2.30;99.90
16408;DHT22;8313;49.894;8.084;2023-03-01T08:39:18;2.30;99.90
16408;DHT22;8313;49.894;8.084;2023-03-01T08:41:45;2.40;99.90
16408;DHT22;8313;49.894;8.084;2023-03-01T08:44:13;2.50;99.90
16408;DHT22;8313;49.894;8.084;2023-03-01T08:46:40;2.50;99.90
16408;DHT22;8313;49.894;8.084;2023-03-01T08:49:08;2.60;99.90
16408;DHT22;8313;49.894;8.084;2023-03-01T08:51:34;2.60;99.90
16408;DHT22;8313;49.894;8.084;2023-03-01T08:54:06;2.70;99.90
16408;DHT22;8313;49.894;8.084;2023-03-01T08:56:33;2.80;99.90
16408;DHT22;8313;49.894;8.084;2023-03-01T08:58:59;2.80;99.90
16408;DHT22;8313;49.894;8.084;2023-03-01T09:01:25;2.70;99.90
16408;DHT22;8313;49.894;8.084;2023-03-01T09:03:50;2.90;99.90
16408;DHT22;8313;49.894;8.084;2023-03-01T09:06:16;3.00;99.90
16408;DHT22;8313;49.894;8.084;2023-03-01T09:08:44;3.00;99.90
16408;DHT22;8313;49.894;8.084;2023-03-01T09:11:12;3.00;99.90
16408;DHT22;8313;49.894;8.084;2023-03-01T09:13:38;3.10;99.90
16408;DHT22;8313;49.894;8.084;2023-03-01T09:16:06;3.30;99.90
16408;DHT22;8313;49.894;8.084;2023-03-01T09:18:33;3.30;99.90
16408;DHT22;8313;49.894;8.084;2023-03-01T09:21:04;3.20;99.90
16408;DHT22;8313;49.894;8.084;2023-03-01T09:23:34;3.10;99.90
16408;DHT22;8313;49.894;8.084;2023-03-01T09:26:02;3.30;99.90
16408;DHT22;8313;49.894;8.084;2023-03-01T09:28:28;3.20;99.90
16408;DHT22;8313;49.894;8.084;2023-03-01T09:30:58;3.20;99.90
16408;DHT22;8313;49.894;8.084;2023-03-01T09:33:23;3.30;99.90
16408;DHT22;8313;49.894;8.084;2023-03-01T09:35:49;3.40;99.90
16408;DHT22;8313;49.894;8.084;2023-03-01T09:38:15;3.40;99.90
16408;DHT22;8313;49.894;8.084;2023-03-01T09:40:44;3.50;99.90
16408;DHT22;8313;49.894;8.084;2023-03-01T09:45:46;3.40;99.90
16408;DHT22;8313;49.894;8.084;2023-03-01T09:48:20;3.50;99.90
16408;DHT22;8313;49.894;8.084;2023-03-01T09:50:50;3.70;99.90
16408;DHT22;8313;49.894;8.084;2023-03-01T09:53:20;3.60;99.90
16408;DHT22;8313;49.894;8.084;2023-03-01T09:58:29;3.50;99.90
16408;DHT22;8313;49.894;8.084;2023-03-01T10:01:00;3.60;99.90
16408;DHT22;8313;49.894;8.084;2023-03-01T10:06:10;4.00;99.90
16408;DHT22;8313;49.894;8.084;2023-03-01T10:08:55;4.10;99.90
16408;DHT22;8313;49.894;8.084;2023-03-01T10:11:35;4.00;99.90
16408;DHT22;8313;49.894;8.084;2023-03-01T10:14:17;4.00;99.90
16408;DHT22;8313;49.894;8.084;2023-03-01T10:19:20;4.10;99.90
16408;DHT22;8313;49.894;8.084;2023-03-01T10:21:48;4.30;99.90
16408;DHT22;8313;49.894;8.084;2023-03-01T10:24:18;4.20;99.90
16408;DHT22;8313;49.894;8.084;2023-03-01T10:26:50;4.00;99.90
16408;DHT22;8313;49.894;8.084;2023-03-01T10:29:23;4.20;99.90
16408;DHT22;8313;49.894;8.084;2023-03-01T10:31:52;4.40;99.90
16408;DHT22;8313;49.894;8.084;2023-03-01T10:36:55;4.40;99.90
16408;DHT22;8313;49.894;8.084;2023-03-01T10:39:23;4.50;99.90
16408;DHT22;8313;49.894;8.084;2023-03-01T10:41:57;4.50;99.90
16408;DHT22;8313;49.894;8.084;2023-03-01T10:44:46;4.70;99.90
16408;DHT22;8313;49.894;8.084;2023-03-01T10:47:19;5.00;99.90
16408;DHT22;8313;49.894;8.084;2023-03-01T10:52:21;4.90;99.90
16408;DHT22;8313;49.894;8.084;2023-03-01T10:57:40;4.80;99.70
16408;DHT22;8313;49.894;8.084;2023-03-01T11:03:08;4.90;99.70
16408;DHT22;8313;49.894;8.084;2023-03-01T11:05:35;4.60;99.90
16408;DHT22;8313;49.894;8.084;2023-03-01T11:08:02;4.50;99.90
16408;DHT22;8313;49.894;8.084;2023-03-01T11:10:34;4.80;99.90
16408;DHT22;8313;49.894;8.084;2023-03-01T11:13:16;4.60;99.90
16408;DHT22;8313;49.894;8.084;2023-03-01T11:15:43;4.60;99.90
16408;DHT22;8313;49.894;8.084;2023-03-01T11:18:23;4.60;99.90
16408;DHT22;8313;49.894;8.084;2023-03-01T11:20:51;4.50;99.90
16408;DHT22;8313;49.894;8.084;2023-03-01T11:23:18;4.70;99.90
16408;DHT22;8313;49.894;8.084;2023-03-01T11:25:56;4.70;99.90
16408;DHT22;8313;49.894;8.084;2023-03-01T11:28:23;4.70;99.90
16408;DHT22;8313;49.894;8.084;2023-03-01T11:30:57;4.80;99.90
16408;DHT22;8313;49.894;8.084;2023-03-01T11:36:53;4.80;99.90
16408;DHT22;8313;49.894;8.084;2023-03-01T11:38:53;5.10;99.80
16408;DHT22;8313;49.894;8.084;2023-03-01T11:41:25;5.20;99.60
16408;DHT22;8313;49.894;8.084;2023-03-01T11:44:14;5.40;99.80
16408;DHT22;8313;49.894;8.084;2023-03-01T11:47:32;5.40;99.70
16408;DHT22;8313;49.894;8.084;2023-03-01T11:50:00;5.20;99.90
16408;DHT22;8313;49.894;8.084;2023-03-01T11:58:31;5.60;98.90
16408;DHT22;8313;49.894;8.084;2023-03-01T12:01:18;5.70;98.90
16408;DHT22;8313;49.894;8.084;2023-03-01T12:06:24;5.60;99.40
16408;DHT22;8313;49.894;8.084;2023-03-01T12:20:07;5.60;99.10
16408;DHT22;8313;49.894;8.084;2023-03-01T12:25:30;5.90;98.60
16408;DHT22;8313;49.894;8.084;2023-03-01T12:28:32;6.00;98.70
16408;DHT22;8313;49.894;8.084;2023-03-01T12:36:31;5.80;98.60
16408;DHT22;8313;49.894;8.084;2023-03-01T12:47:25;5.70;98.60
16408;DHT22;8313;49.894;8.084;2023-03-01T12:49:59;5.70;99.10
16408;DHT22;8313;49.894;8.084;2023-03-01T12:52:35;5.80;98.50
16408;DHT22;8313;49.894;8.084;2023-03-01T13:11:56;5.90;98.00
16408;DHT22;8313;49.894;8.084;2023-03-01T13:16:49;5.90;98.00
16408;DHT22;8313;49.894;8.084;2023-03-01T13:21:45;6.10;98.10
16408;DHT22;8313;49.894;8.084;2023-03-01T13:24:43;6.10;98.10
16408;DHT22;8313;49.894;8.084;2023-03-01T13:27:09;6.10;97.50
16408;DHT22;8313;49.894;8.084;2023-03-01T13:29:56;6.10;97.20
16408;DHT22;8313;49.894;8.084;2023-03-01T13:32:33;6.10;97.30
16408;DHT22;8313;49.894;8.084;2023-03-01T13:37:40;6.20;97.30
16408;DHT22;8313;49.894;8.084;2023-03-01T13:42:46;6.30;97.30
16408;DHT22;8313;49.894;8.084;2023-03-01T13:47:45;6.40;97.00
16408;DHT22;8313;49.894;8.084;2023-03-01T13:50:20;6.50;97.20
16408;DHT22;8313;49.894;8.084;2023-03-01T13:52:52;6.40;96.90
16408;DHT22;8313;49.894;8.084;2023-03-01T13:55:23;6.40;97.20
16408;DHT22;8313;49.894;8.084;2023-03-01T13:58:01;6.50;96.70
16408;DHT22;8313;49.894;8.084;2023-03-01T14:03:15;6.40;96.60
16408;DHT22;8313;49.894;8.084;2023-03-01T14:08:29;6.50;96.60
16408;DHT22;8313;49.894;8.084;2023-03-01T14:19:25;6.50;96.40
16408;DHT22;8313;49.894;8.084;2023-03-01T14:27:19;6.60;96.40
16408;DHT22;8313;49.894;8.084;2023-03-01T14:30:09;6.60;96.30
16408;DHT22;8313;49.894;8.084;2023-03-01T14:32:35;6.80;96.60
16408;DHT22;8313;49.894;8.084;2023-03-01T14:35:01;6.70;96.10
16408;DHT22;8313;49.894;8.084;2023-03-01T14:37:32;6.70;96.20
16408;DHT22;8313;49.894;8.084;2023-03-01T14:40:00;6.70;96.30
16408;DHT22;8313;49.894;8.084;2023-03-01T14:42:34;6.70;96.00
16408;DHT22;8313;49.894;8.084;2023-03-01T14:45:01;6.70;96.10
16408;DHT22;8313;49.894;8.084;2023-03-01T14:47:35;6.70;96.20
16408;DHT22;8313;49.894;8.084;2023-03-01T14:52:57;6.70;96.00
16408;DHT22;8313;49.894;8.084;2023-03-01T14:57:58;6.80;96.30
16408;DHT22;8313;49.894;8.084;2023-03-01T15:00:29;6.80;96.30
16408;DHT22;8313;49.894;8.084;2023-03-01T15:03:00;6.80;96.30
16408;DHT22;8313;49.894;8.084;2023-03-01T15:05:31;6.80;96.20
16408;DHT22;8313;49.894;8.084;2023-03-01T15:07:58;6.80;96.20
16408;DHT22;8313;49.894;8.084;2023-03-01T15:10:31;6.80;96.30
16408;DHT22;8313;49.894;8.084;2023-03-01T15:13:13;6.90;96.10
16408;DHT22;8313;49.894;8.084;2023-03-01T15:15:44;6.90;96.10
16408;DHT22;8313;49.894;8.084;2023-03-01T15:18:28;6.90;96.10
16408;DHT22;8313;49.894;8.084;2023-03-01T15:20:56;6.90;96.10
16408;DHT22;8313;49.894;8.084;2023-03-01T15:23:30;6.90;96.20
16408;DHT22;8313;49.894;8.084;2023-03-01T15:25:57;7.00;96.40
16408;DHT22;8313;49.894;8.084;2023-03-01T15:28:29;6.90;96.10
16408;DHT22;8313;49.894;8.084;2023-03-01T15:30:59;6.90;96.20
16408;DHT22;8313;49.894;8.084;2023-03-01T15:33:36;6.90;96.10
16408;DHT22;8313;49.894;8.084;2023-03-01T15:36:29;6.90;95.90
16408;DHT22;8313;49.894;8.084;2023-03-01T15:38:57;6.90;96.10
16408;DHT22;8313;49.894;8.084;2023-03-01T15:41:24;6.90;96.00
16408;DHT22;8313;49.894;8.084;2023-03-01T15:43:51;6.90;95.90
16408;DHT22;8313;49.894;8.084;2023-03-01T15:46:32;6.90;96.00
16408;DHT22;8313;49.894;8.084;2023-03-01T15:49:01;7.00;95.90
16408;DHT22;8313;49.894;8.084;2023-03-01T15:51:35;7.00;96.00
16408;DHT22;8313;49.894;8.084;2023-03-01T15:54:15;7.00;96.30
16408;DHT22;8313;49.894;8.084;2023-03-01T15:56:42;7.00;96.00
16408;DHT22;8313;49.894;8.084;2023-03-01T15:59:11;7.00;96.00
16408;DHT22;8313;49.894;8.084;2023-03-01T16:01:44;7.00;96.00
16408;DHT22;8313;49.894;8.084;2023-03-01T16:04:11;7.00;96.00
16408;DHT22;8313;49.894;8.084;2023-03-01T16:06:41;6.90;96.20
16408;DHT22;8313;49.894;8.084;2023-03-01T16:09:08;6.90;96.30
16408;DHT22;8313;49.894;8.084;2023-03-01T16:11:35;6.90;96.00
16408;DHT22;8313;49.894;8.084;2023-03-01T16:14:02;7.00;96.50
16408;DHT22;8313;49.894;8.084;2023-03-01T16:16:28;6.90;96.10
16408;DHT22;8313;49.894;8.084;2023-03-01T16:18:56;7.00;96.40
16408;DHT22;8313;49.894;8.084;2023-03-01T16:21:23;7.00;95.90
16408;DHT22;8313;49.894;8.084;2023-03-01T16:23:50;7.00;95.90
16408;DHT22;8313;49.894;8.084;2023-03-01T16:26:16;6.90;96.00
16408;DHT22;8313;49.894;8.084;2023-03-01T16:28:43;6.90;96.00
16408;DHT22;8313;49.894;8.084;2023-03-01T16:31:09;6.90;96.00
16408;DHT22;8313;49.894;8.084;2023-03-01T16:33:35;6.90;96.20
16408;DHT22;8313;49.894;8.084;2023-03-01T16:36:07;6.90;96.20
16408;DHT22;8313;49.894;8.084;2023-03-01T16:38:33;6.90;96.20
16408;DHT22;8313;49.894;8.084;2023-03-01T16:41:00;6.80;96.20
16408;DHT22;8313;49.894;8.084;2023-03-01T16:43:26;6.80;96.00
16408;DHT22;8313;49.894;8.084;2023-03-01T16:45:52;6.80;96.00
16408;DHT22;8313;49.894;8.084;2023-03-01T16:48:17;6.70;96.10
16408;DHT22;8313;49.894;8.084;2023-03-01T16:50:43;6.70;96.00
16408;DHT22;8313;49.894;8.084;2023-03-01T16:53:09;6.70;96.00
16408;DHT22;8313;49.894;8.084;2023-03-01T16:55:35;6.70;96.20
16408;DHT22;8313;49.894;8.084;2023-03-01T16:58:07;6.60;96.20
16408;DHT22;8313;49.894;8.084;2023-03-01T17:00:37;6.60;96.30
16408;DHT22;8313;49.894;8.084;2023-03-01T17:03:03;6.60;96.20
16408;DHT22;8313;49.894;8.084;2023-03-01T17:05:29;6.50;96.20
16408;DHT22;8313;49.894;8.084;2023-03-01T17:07:55;6.50;96.20
16408;DHT22;8313;49.894;8.084;2023-03-01T17:10:22;6.50;96.40
16408;DHT22;8313;49.894;8.084;2023-03-01T17:12:48;6.50;96.60
16408;DHT22;8313;49.894;8.084;2023-03-01T17:15:15;6.50;96.40
16408;DHT22;8313;49.894;8.084;2023-03-01T17:17:41;6.40;96.40
16408;DHT22;8313;49.894;8.084;2023-03-01T17:20:07;6.40;96.60
16408;DHT22;8313;49.894;8.084;2023-03-01T17:22:33;6.40;96.50
16408;DHT22;8313;49.894;8.084;2023-03-01T17:24:59;6.30;96.60
16408;DHT22;8313;49.894;8.084;2023-03-01T17:27:25;6.30;96.60
16408;DHT22;8313;49.894;8.084;2023-03-01T17:29:51;6.30;96.60
16408;DHT22;8313;49.894;8.084;2023-03-01T17:32:16;6.20;96.40
16408;DHT22;8313;49.894;8.084;2023-03-01T17:34:42;6.20;96.70
16408;DHT22;8313;49.894;8.084;2023-03-01T17:37:08;6.20;96.60
16408;DHT22;8313;49.894;8.084;2023-03-01T17:39:33;6.20;96.70
16408;DHT22;8313;49.894;8.084;2023-03-01T17:42:02;6.20;96.70
16408;DHT22;8313;49.894;8.084;2023-03-01T17:44:29;6.10;96.40
16408;DHT22;8313;49.894;8.084;2023-03-01T17:46:55;6.10;96.50
16408;DHT22;8313;49.894;8.084;2023-03-01T17:49:21;6.10;96.50
16408;DHT22;8313;49.894;8.084;2023-03-01T17:51:46;6.10;96.50
16408;DHT22;8313;49.894;8.084;2023-03-01T17:54:12;6.00;96.40
16408;DHT22;8313;49.894;8.084;2023-03-01T17:56:38;6.00;96.60
16408;DHT22;8313;49.894;8.084;2023-03-01T17:59:05;5.90;96.40
16408;DHT22;8313;49.894;8.084;2023-03-01T18:01:31;5.90;96.40
16408;DHT22;8313;49.894;8.084;2023-03-01T18:03:57;5.80;96.30
16408;DHT22;8313;49.894;8.084;2023-03-01T18:06:25;5.80;96.30
16408;DHT22;8313;49.894;8.084;2023-03-01T18:08:51;5.80;96.20
16408;DHT22;8313;49.894;8.084;2023-03-01T18:11:20;5.70;96.20
16408;DHT22;8313;49.894;8.084;2023-03-01T18:13:46;5.70;96.30
16408;DHT22;8313;49.894;8.084;2023-03-01T18:16:16;5.70;96.20
16408;DHT22;8313;49.894;8.084;2023-03-01T18:18:42;5.60;96.20
16408;DHT22;8313;49.894;8.084;2023-03-01T18:21:10;5.60;96.10
16408;DHT22;8313;49.894;8.084;2023-03-01T18:23:36;5.60;96.10
16408;DHT22;8313;49.894;8.084;2023-03-01T18:26:05;5.50;96.10
16408;DHT22;8313;49.894;8.084;2023-03-01T18:28:31;5.50;96.20